createdAt,value
2018-07-26T00:00:57.618Z,7.4
2018-07-26T00:01:58.339Z,8.1
2018-07-26T00:02:59.064Z,7.0
2018-07-26T00:03:59.782Z,7.7
2018-07-26T00:05:00.506Z,9.8
2018-07-26T00:06:01.242Z,9.5
2018-07-26T00:07:01.959Z,7.6
2018-07-26T00:08:02.702Z,8.0
2018-07-26T00:09:03.478Z,7.3
2018-07-26T00:10:04.199Z,13.1
2018-07-26T00:11:04.978Z,7.9
2018-07-26T00:12:05.706Z,8.6
2018-07-26T00:13:06.433Z,8.8
2018-07-26T00:14:07.159Z,7.7
2018-07-26T00:15:08.143Z,8.1
2018-07-26T00:16:08.925Z,8.1
2018-07-26T00:17:09.645Z,11.2
2018-07-26T00:18:10.616Z,8.2
2018-07-26T00:19:11.340Z,8.6
2018-07-26T00:20:12.070Z,7.4
2018-07-26T00:21:13.096Z,8.1
2018-07-26T00:22:13.827Z,8.7
2018-07-26T00:23:14.550Z,7.5
2018-07-26T00:24:15.530Z,8.0
2018-07-26T00:25:16.268Z,8.1
2018-07-26T00:26:16.992Z,13.4
2018-07-26T00:27:17.710Z,7.7
2018-07-26T00:28:18.434Z,7.5
2018-07-26T00:29:19.170Z,8.3
2018-07-26T00:30:19.894Z,8.0
2018-07-26T00:31:20.872Z,10.7
2018-07-26T00:32:21.896Z,8.7
2018-07-26T00:33:22.624Z,8.5
2018-07-26T00:34:23.353Z,8.0
2018-07-26T00:35:24.079Z,8.0
2018-07-26T00:36:24.824Z,8.3
2018-07-26T00:37:26.159Z,8.6
2018-07-26T00:38:26.904Z,9.8
2018-07-26T00:39:27.631Z,8.8
2018-07-26T00:40:28.372Z,8.0
2018-07-26T00:41:29.355Z,8.5
2018-07-26T00:42:30.432Z,8.3
2018-07-26T00:43:31.164Z,8.2
2018-07-26T00:44:31.889Z,8.4
2018-07-26T00:45:32.629Z,8.1
2018-07-26T00:46:33.349Z,12.6
2018-07-26T00:47:34.372Z,8.1
2018-07-26T00:48:35.105Z,7.8
2018-07-26T00:49:35.834Z,11.7
2018-07-26T00:50:36.556Z,7.8
2018-07-26T00:51:37.288Z,8.4
2018-07-26T00:52:38.035Z,7.8
2018-07-26T00:53:38.771Z,11.6
2018-07-26T00:54:39.494Z,15.9
2018-07-26T00:55:40.233Z,11.9
2018-07-26T00:56:40.956Z,8.8
2018-07-26T00:57:41.680Z,8.7
2018-07-26T00:58:42.412Z,15.8
2018-07-26T00:59:43.380Z,9.0
2018-07-26T01:00:44.457Z,8.7
2018-07-26T01:01:45.207Z,9.2
2018-07-26T01:02:45.938Z,12.5
2018-07-26T01:03:46.669Z,8.0
2018-07-26T01:04:47.408Z,8.5
2018-07-26T01:05:48.144Z,10.2
2018-07-26T01:06:48.869Z,8.6
2018-07-26T01:07:49.595Z,9.1
2018-07-26T01:08:50.321Z,9.1
2018-07-26T01:09:51.301Z,8.6
2018-07-26T01:10:52.033Z,11.1
2018-07-26T01:11:52.772Z,8.6
2018-07-26T01:12:53.499Z,8.3
2018-07-26T01:13:54.246Z,8.7
2018-07-26T01:14:55.226Z,8.9
2018-07-26T01:15:55.963Z,9.6
2018-07-26T01:16:56.684Z,9.7
2018-07-26T01:17:57.409Z,9.0
2018-07-26T01:18:58.392Z,8.5
2018-07-26T01:19:59.372Z,8.3
2018-07-26T01:21:00.097Z,8.4
2018-07-26T01:22:00.822Z,11.6
2018-07-26T01:23:01.602Z,8.7
2018-07-26T01:24:02.342Z,9.5
2018-07-26T01:25:03.079Z,9.2
2018-07-26T01:26:03.809Z,8.8
2018-07-26T01:27:04.545Z,9.3
2018-07-26T01:28:05.260Z,10.1
2018-07-26T01:29:05.995Z,10.7
2018-07-26T01:30:06.719Z,11.9
2018-07-26T01:31:07.469Z,8.4
2018-07-26T01:32:08.198Z,11.3
2018-07-26T01:33:09.193Z,10.3
2018-07-26T01:34:09.915Z,11.9
2018-07-26T01:35:10.891Z,9.4
2018-07-26T01:36:11.618Z,9.4
2018-07-26T01:37:12.336Z,10.5
2018-07-26T01:38:13.067Z,9.6
2018-07-26T01:39:13.792Z,12.7
2018-07-26T01:40:14.528Z,9.2
2018-07-26T01:41:15.252Z,10.4
2018-07-26T01:42:15.995Z,9.4
2018-07-26T01:43:16.720Z,10.0
2018-07-26T01:44:17.704Z,12.8
2018-07-26T01:45:18.430Z,12.3
2018-07-26T01:46:19.175Z,9.6
2018-07-26T01:47:19.918Z,9.1
2018-07-26T01:48:20.891Z,9.3
2018-07-26T01:49:22.076Z,9.8
2018-07-26T01:50:22.799Z,9.9
2018-07-26T01:51:23.530Z,9.2
2018-07-26T01:52:24.263Z,11.2
2018-07-26T01:53:24.988Z,10.3
2018-07-26T01:54:25.722Z,9.1
2018-07-26T01:55:26.443Z,10.0
2018-07-26T01:56:27.170Z,13.3
2018-07-26T01:57:27.895Z,11.3
2018-07-26T01:58:28.621Z,10.3
2018-07-26T01:59:29.358Z,10.8
2018-07-26T02:00:30.085Z,10.5
2018-07-26T02:01:30.823Z,9.9
2018-07-26T02:02:31.551Z,10.2
2018-07-26T02:03:32.264Z,9.7
2018-07-26T02:04:32.995Z,10.2
2018-07-26T02:05:33.726Z,10.1
2018-07-26T02:06:34.509Z,9.8
2018-07-26T02:07:35.233Z,9.3
2018-07-26T02:08:35.976Z,9.4
2018-07-26T02:09:36.700Z,10.2
2018-07-26T02:10:37.464Z,10.1
2018-07-26T02:11:38.263Z,9.8
2018-07-26T02:12:39.184Z,9.3
2018-07-26T02:13:40.381Z,16.0
2018-07-26T02:14:41.208Z,15.3
2018-07-26T02:15:41.999Z,9.4
2018-07-26T02:16:42.764Z,8.8
2018-07-26T02:17:43.984Z,9.2
2018-07-26T02:18:44.738Z,9.1
2018-07-26T02:19:45.986Z,9.8
2018-07-26T02:20:46.795Z,9.4
2018-07-26T02:21:47.655Z,10.2
2018-07-26T02:22:48.425Z,8.7
2018-07-26T02:23:49.252Z,9.8
2018-07-26T02:24:50.253Z,8.9
2018-07-26T02:25:51.339Z,8.8
2018-07-26T02:26:52.168Z,8.7
2018-07-26T02:27:52.931Z,9.0
2018-07-26T02:28:53.823Z,9.0
2018-07-26T02:29:55.015Z,10.3
2018-07-26T02:30:55.768Z,9.4
2018-07-26T02:31:57.032Z,11.4
2018-07-26T02:32:57.771Z,9.7
2018-07-26T02:33:58.712Z,10.9
2018-07-26T02:34:59.596Z,9.3
2018-07-26T02:36:00.359Z,8.4
2018-07-26T02:37:01.457Z,8.6
2018-07-26T02:38:02.181Z,8.7
2018-07-26T02:39:03.403Z,8.6
2018-07-26T02:40:04.188Z,11.0
2018-07-26T02:41:05.029Z,8.7
2018-07-26T02:42:05.763Z,11.0
2018-07-26T02:43:06.492Z,8.4
2018-07-26T02:44:07.210Z,8.6
2018-07-26T02:45:07.944Z,8.8
2018-07-26T02:46:08.674Z,9.3
2018-07-26T02:47:09.408Z,8.0
2018-07-26T02:48:10.125Z,9.2
2018-07-26T02:49:10.855Z,10.2
2018-07-26T02:50:11.583Z,8.9
2018-07-26T02:51:12.302Z,9.1
2018-07-26T02:52:13.036Z,11.3
2018-07-26T02:53:13.762Z,7.8
2018-07-26T02:54:14.500Z,10.2
2018-07-26T02:55:15.226Z,8.1
2018-07-26T02:56:16.256Z,8.3
2018-07-26T02:57:16.984Z,7.7
2018-07-26T02:58:17.710Z,7.5
2018-07-26T02:59:18.435Z,11.6
2018-07-26T03:00:19.167Z,12.7
2018-07-26T03:01:19.892Z,8.6
2018-07-26T03:02:20.615Z,7.9
2018-07-26T03:03:21.335Z,7.8
2018-07-26T03:04:22.071Z,8.4
2018-07-26T03:05:22.848Z,8.4
2018-07-26T03:06:23.576Z,8.1
2018-07-26T03:07:24.300Z,9.0
2018-07-26T03:08:25.039Z,8.6
2018-07-26T03:09:25.777Z,9.4
2018-07-26T03:10:26.857Z,8.0
2018-07-26T03:11:27.589Z,7.8
2018-07-26T03:12:28.312Z,8.8
2018-07-26T03:13:29.301Z,8.6
2018-07-26T03:14:30.024Z,8.2
2018-07-26T03:15:30.765Z,7.3
2018-07-26T03:16:31.501Z,15.6
2018-07-26T03:17:32.283Z,9.2
2018-07-26T03:18:33.008Z,9.1
2018-07-26T03:19:33.749Z,13.1
2018-07-26T03:20:34.484Z,9.2
2018-07-26T03:21:35.207Z,7.5
2018-07-26T03:22:35.931Z,9.5
2018-07-26T03:23:36.657Z,8.2
2018-07-26T03:24:37.391Z,8.5
2018-07-26T03:25:38.124Z,9.5
2018-07-26T03:26:38.853Z,10.3
2018-07-26T03:27:39.628Z,10.2
2018-07-26T03:28:40.367Z,8.3
2018-07-26T03:29:41.118Z,8.2
2018-07-26T03:30:41.830Z,8.8
2018-07-26T03:31:42.566Z,8.8
2018-07-26T03:32:43.294Z,8.5
2018-07-26T03:33:44.022Z,8.8
2018-07-26T03:34:44.747Z,8.4
2018-07-26T03:35:45.483Z,9.2
2018-07-26T03:36:46.211Z,10.4
2018-07-26T03:37:46.986Z,9.1
2018-07-26T03:38:47.723Z,8.8
2018-07-26T03:39:48.460Z,11.6
2018-07-26T03:40:49.188Z,8.8
2018-07-26T03:41:49.917Z,8.3
2018-07-26T03:42:50.656Z,9.4
2018-07-26T03:43:51.382Z,9.4
2018-07-26T03:44:52.109Z,8.8
2018-07-26T03:45:52.843Z,8.4
2018-07-26T03:46:54.354Z,8.2
2018-07-26T03:47:55.450Z,9.2
2018-07-26T03:48:56.321Z,8.2
2018-07-26T03:49:57.440Z,9.0
2018-07-26T03:50:58.200Z,10.1
2018-07-26T03:51:59.333Z,11.4
2018-07-26T03:53:00.179Z,10.3
2018-07-26T03:54:01.011Z,8.9
2018-07-26T03:55:01.848Z,8.7
2018-07-26T03:56:02.719Z,9.0
2018-07-26T03:57:03.888Z,8.9
2018-07-26T03:58:04.723Z,13.0
2018-07-26T03:59:05.517Z,13.4
2018-07-26T04:00:06.309Z,9.0
2018-07-26T04:01:07.155Z,8.7
2018-07-26T04:02:07.883Z,11.0
2018-07-26T04:03:08.617Z,8.1
2018-07-26T04:04:09.337Z,9.0
2018-07-26T04:05:10.451Z,8.2
2018-07-26T04:06:11.175Z,13.0
2018-07-26T04:07:11.928Z,8.8
2018-07-26T04:08:12.651Z,9.0
2018-07-26T04:09:13.376Z,8.1
2018-07-26T04:10:14.108Z,10.9
2018-07-26T04:11:14.856Z,10.1
2018-07-26T04:12:15.594Z,12.5
2018-07-26T04:13:16.337Z,10.8
2018-07-26T04:14:17.083Z,8.2
2018-07-26T04:15:17.823Z,8.6
2018-07-26T04:16:18.555Z,7.7
2018-07-26T04:17:19.295Z,8.7
2018-07-26T04:18:20.046Z,8.4
2018-07-26T04:19:20.771Z,7.9
2018-07-26T04:20:21.526Z,9.4
2018-07-26T04:21:22.260Z,7.9
2018-07-26T04:22:23.249Z,8.4
2018-07-26T04:23:23.979Z,7.4
2018-07-26T04:24:24.722Z,7.9
2018-07-26T04:25:25.465Z,9.1
2018-07-26T04:26:26.201Z,8.5
2018-07-26T04:27:26.938Z,7.9
2018-07-26T04:28:28.019Z,9.6
2018-07-26T04:29:28.754Z,9.2
2018-07-26T04:30:29.485Z,9.4
2018-07-26T04:31:30.219Z,10.0
2018-07-26T04:32:30.971Z,7.2
2018-07-26T04:33:31.739Z,9.1
2018-07-26T04:34:32.476Z,10.3
2018-07-26T04:35:33.203Z,7.0
2018-07-26T04:36:33.939Z,7.4
2018-07-26T04:37:34.669Z,8.1
2018-07-26T04:38:35.418Z,9.5
2018-07-26T04:39:36.144Z,9.9
2018-07-26T04:40:36.870Z,8.7
2018-07-26T04:41:37.621Z,7.3
2018-07-26T04:42:38.337Z,9.9
2018-07-26T04:43:39.064Z,10.2
2018-07-26T04:44:39.798Z,9.4
2018-07-26T04:45:40.595Z,9.1
2018-07-26T04:46:41.322Z,7.4
2018-07-26T04:47:42.061Z,8.0
2018-07-26T04:48:42.793Z,8.1
2018-07-26T04:49:43.530Z,7.8
2018-07-26T04:50:44.622Z,9.1
2018-07-26T04:51:45.342Z,7.8
2018-07-26T04:52:46.097Z,8.4
2018-07-26T04:53:46.816Z,7.5
2018-07-26T04:54:47.551Z,10.1
2018-07-26T04:55:48.282Z,8.5
2018-07-26T04:56:49.023Z,8.0
2018-07-26T04:57:49.756Z,7.9
2018-07-26T04:58:50.732Z,8.4
2018-07-26T04:59:51.476Z,9.5
2018-07-26T05:00:52.203Z,7.7
2018-07-26T05:01:52.959Z,7.9
2018-07-26T05:02:54.040Z,8.7
2018-07-26T05:03:54.787Z,12.3
2018-07-26T05:04:55.521Z,8.1
2018-07-26T05:05:56.245Z,8.5
2018-07-26T05:06:56.983Z,8.4
2018-07-26T05:07:57.714Z,11.2
2018-07-26T05:08:58.447Z,8.4
2018-07-26T05:09:59.200Z,8.6
2018-07-26T05:11:00.283Z,7.7
2018-07-26T05:12:01.045Z,8.1
2018-07-26T05:13:01.770Z,7.4
2018-07-26T05:14:02.753Z,7.3
2018-07-26T05:15:03.496Z,7.4
2018-07-26T05:16:04.219Z,9.1
2018-07-26T05:17:04.969Z,8.2
2018-07-26T05:18:05.730Z,8.0
2018-07-26T05:19:06.824Z,7.5
2018-07-26T05:20:07.510Z,7.1
2018-07-26T05:21:08.287Z,7.2
2018-07-26T05:22:09.020Z,6.9
2018-07-26T05:23:09.766Z,12.5
2018-07-26T05:24:10.758Z,6.4
2018-07-26T05:25:11.486Z,9.3
2018-07-26T05:26:12.284Z,7.0
2018-07-26T05:27:13.043Z,6.4
2018-07-26T05:28:13.776Z,7.2
2018-07-26T05:29:14.512Z,8.1
2018-07-26T05:30:15.249Z,8.2
2018-07-26T05:31:15.982Z,6.9
2018-07-26T05:32:16.716Z,10.1
2018-07-26T05:33:17.892Z,5.5
2018-07-26T05:34:18.726Z,10.0
2018-07-26T05:35:19.891Z,6.9
2018-07-26T05:36:20.752Z,6.0
2018-07-26T05:37:21.681Z,6.5
2018-07-26T05:38:22.747Z,6.0
2018-07-26T05:39:23.538Z,10.1
2018-07-26T05:40:24.272Z,8.7
2018-07-26T05:41:25.013Z,6.1
2018-07-26T05:42:25.797Z,10.7
2018-07-26T05:43:27.073Z,7.0
2018-07-26T05:44:27.909Z,8.1
2018-07-26T05:45:28.977Z,12.2
2018-07-26T05:46:30.085Z,8.6
2018-07-26T05:47:30.817Z,5.9
2018-07-26T05:48:31.954Z,5.5
2018-07-26T05:49:32.771Z,6.8
2018-07-26T05:50:33.519Z,7.0
2018-07-26T05:51:34.553Z,10.0
2018-07-26T05:52:35.445Z,6.0
2018-07-26T05:53:36.455Z,6.3
2018-07-26T05:54:37.181Z,6.5
2018-07-26T05:55:37.929Z,6.5
2018-07-26T05:56:38.961Z,10.1
2018-07-26T05:57:39.798Z,6.9
2018-07-26T05:58:40.536Z,6.0
2018-07-26T05:59:41.281Z,6.8
2018-07-26T06:00:42.022Z,6.8
2018-07-26T06:01:42.764Z,6.9
2018-07-26T06:02:43.759Z,8.3
2018-07-26T06:03:44.498Z,7.2
2018-07-26T06:04:45.229Z,7.1
2018-07-26T06:05:45.965Z,7.6
2018-07-26T06:06:46.701Z,7.3
2018-07-26T06:07:47.434Z,6.5
2018-07-26T06:08:48.160Z,6.0
2018-07-26T06:09:48.892Z,9.2
2018-07-26T06:10:49.628Z,7.0
2018-07-26T06:11:50.365Z,8.7
2018-07-26T06:12:51.101Z,6.7
2018-07-26T06:13:51.837Z,10.7
2018-07-26T06:14:52.619Z,5.5
2018-07-26T06:15:53.363Z,12.5
2018-07-26T06:16:54.102Z,7.2
2018-07-26T06:17:54.829Z,6.7
2018-07-26T06:18:55.574Z,8.6
2018-07-26T06:19:56.349Z,4.4
2018-07-26T06:20:57.075Z,6.4
2018-07-26T06:21:57.801Z,4.9
2018-07-26T06:22:58.539Z,5.1
2018-07-26T06:23:59.265Z,6.3
2018-07-26T06:25:00.004Z,10.1
2018-07-26T06:26:00.740Z,5.4
2018-07-26T06:27:01.484Z,4.6
2018-07-26T06:28:02.293Z,4.7
2018-07-26T06:29:02.965Z,4.3
2018-07-26T06:30:03.701Z,4.3
2018-07-26T06:31:04.693Z,6.2
2018-07-26T06:32:05.696Z,6.4
2018-07-26T06:33:06.442Z,6.1
2018-07-26T06:34:07.223Z,5.1
2018-07-26T06:35:07.963Z,4.6
2018-07-26T06:36:08.708Z,5.2
2018-07-26T06:37:09.451Z,5.1
2018-07-26T06:38:10.185Z,7.3
2018-07-26T06:39:10.930Z,4.3
2018-07-26T06:40:11.666Z,6.8
2018-07-26T06:41:12.400Z,7.1
2018-07-26T06:42:13.141Z,6.5
2018-07-26T06:43:13.879Z,6.0
2018-07-26T06:44:14.617Z,8.6
2018-07-26T06:45:15.344Z,7.4
2018-07-26T06:46:16.077Z,7.0
2018-07-26T06:47:16.865Z,6.9
2018-07-26T06:48:17.600Z,5.5
2018-07-26T06:49:18.337Z,5.9
2018-07-26T06:50:19.072Z,8.7
2018-07-26T06:51:19.816Z,7.1
2018-07-26T06:52:20.565Z,5.7
2018-07-26T06:53:21.294Z,3.9
2018-07-26T06:54:22.297Z,7.2
2018-07-26T06:55:23.135Z,10.5
2018-07-26T06:56:23.912Z,6.0
2018-07-26T06:57:24.641Z,4.3
2018-07-26T06:58:25.374Z,7.5
2018-07-26T06:59:26.116Z,7.2
2018-07-26T07:00:26.971Z,10.1
2018-07-26T07:01:27.696Z,13.3
2018-07-26T07:02:28.448Z,6.1
2018-07-26T07:03:29.183Z,12.5
2018-07-26T07:04:29.921Z,3.3
2018-07-26T07:05:31.040Z,6.0
2018-07-26T07:06:31.942Z,6.4
2018-07-26T07:07:32.678Z,7.1
2018-07-26T07:08:33.418Z,8.4
2018-07-26T07:09:34.400Z,8.0
2018-07-26T07:10:35.135Z,3.9
2018-07-26T07:11:35.882Z,3.4
2018-07-26T07:12:36.674Z,4.8
2018-07-26T07:13:37.417Z,4.4
2018-07-26T07:14:38.143Z,4.3
2018-07-26T07:15:38.887Z,8.0
2018-07-26T07:16:39.613Z,3.8
2018-07-26T07:17:40.351Z,3.7
2018-07-26T07:18:41.090Z,3.3
2018-07-26T07:19:41.817Z,3.0
2018-07-26T07:20:42.549Z,3.2
2018-07-26T07:21:43.527Z,7.2
2018-07-26T07:22:44.262Z,4.4
2018-07-26T07:23:45.002Z,8.9
2018-07-26T07:24:46.085Z,9.3
2018-07-26T07:25:46.819Z,4.7
2018-07-26T07:26:47.575Z,5.5
2018-07-26T07:27:48.309Z,8.9
2018-07-26T07:28:49.528Z,2.9
2018-07-26T07:29:50.769Z,4.0
2018-07-26T07:30:51.747Z,5.2
2018-07-26T07:31:52.489Z,4.0
2018-07-26T07:32:53.231Z,2.9
2018-07-26T07:33:53.967Z,3.1
2018-07-26T07:34:54.715Z,4.9
2018-07-26T07:35:57.336Z,5.4
2018-07-26T07:36:58.151Z,5.0
2018-07-26T07:37:58.886Z,3.4
2018-07-26T07:38:59.618Z,8.7
2018-07-26T07:40:00.611Z,3.0
2018-07-26T07:41:01.344Z,4.1
2018-07-26T07:42:02.081Z,4.5
2018-07-26T07:43:03.079Z,3.0
2018-07-26T07:44:03.891Z,3.8
2018-07-26T07:45:04.593Z,3.8
2018-07-26T07:46:05.339Z,2.8
2018-07-26T07:47:06.329Z,6.1
2018-07-26T07:48:07.070Z,6.5
2018-07-26T07:49:08.151Z,10.3
2018-07-26T07:50:08.882Z,6.0
2018-07-26T07:51:09.635Z,8.6
2018-07-26T07:52:10.369Z,10.4
2018-07-26T07:53:11.106Z,2.9
2018-07-26T07:54:11.840Z,3.1
2018-07-26T07:55:12.589Z,5.0
2018-07-26T07:56:13.325Z,2.7
2018-07-26T07:57:14.074Z,2.6
2018-07-26T07:58:14.816Z,7.3
2018-07-26T07:59:15.554Z,5.1
2018-07-26T08:00:16.306Z,8.3
2018-07-26T08:01:17.050Z,6.8
2018-07-26T08:02:18.038Z,4.2
2018-07-26T08:03:18.770Z,5.0
2018-07-26T08:04:19.515Z,3.1
2018-07-26T08:05:20.277Z,3.5
2018-07-26T08:06:21.007Z,2.9
2018-07-26T08:07:21.840Z,5.9
2018-07-26T08:08:22.589Z,5.9
2018-07-26T08:09:23.326Z,3.3
2018-07-26T08:10:24.074Z,4.9
2018-07-26T08:11:24.808Z,5.9
2018-07-26T08:12:25.556Z,2.8
2018-07-26T08:13:26.289Z,7.2
2018-07-26T08:14:27.042Z,6.3
2018-07-26T08:15:27.775Z,5.4
2018-07-26T08:16:28.536Z,2.6
2018-07-26T08:17:29.533Z,3.1
2018-07-26T08:18:31.355Z,5.9
2018-07-26T08:19:32.142Z,6.5
2018-07-26T08:20:32.883Z,2.8
2018-07-26T08:21:33.628Z,5.0
2018-07-26T08:22:34.371Z,2.7
2018-07-26T08:23:35.125Z,7.0
2018-07-26T08:24:35.867Z,3.1
2018-07-26T08:25:36.944Z,5.4
2018-07-26T08:26:37.692Z,2.7
2018-07-26T08:27:38.430Z,3.7
2018-07-26T08:28:39.176Z,12.4
2018-07-26T08:29:39.920Z,2.9
2018-07-26T08:30:40.647Z,12.8
2018-07-26T08:31:41.383Z,7.7
2018-07-26T08:32:42.116Z,6.5
2018-07-26T08:33:42.871Z,5.6
2018-07-26T08:34:43.666Z,4.3
2018-07-26T08:35:44.400Z,2.5
2018-07-26T08:36:45.152Z,7.2
2018-07-26T08:37:45.902Z,4.2
2018-07-26T08:38:46.648Z,3.0
2018-07-26T08:39:47.437Z,4.8
2018-07-26T08:40:48.173Z,6.2
2018-07-26T08:41:48.924Z,6.7
2018-07-26T08:42:49.660Z,4.5
2018-07-26T08:43:50.410Z,9.3
2018-07-26T08:44:51.197Z,8.0
2018-07-26T08:45:51.935Z,4.9
2018-07-26T08:46:52.680Z,5.5
2018-07-26T08:47:53.690Z,2.3
2018-07-26T08:48:54.420Z,8.8
2018-07-26T08:49:55.510Z,5.0
2018-07-26T08:50:56.587Z,4.0
2018-07-26T08:52:59.028Z,4.2
2018-07-26T08:54:00.047Z,4.8
2018-07-26T08:55:00.843Z,3.5
2018-07-26T08:56:01.592Z,4.0
2018-07-26T08:57:02.339Z,3.1
2018-07-26T08:58:03.078Z,9.2
2018-07-26T08:59:03.825Z,2.9
2018-07-26T09:00:04.920Z,2.4
2018-07-26T09:01:05.714Z,4.9
2018-07-26T09:02:06.398Z,3.7
2018-07-26T09:03:07.139Z,2.5
2018-07-26T09:04:07.874Z,2.2
2018-07-26T09:05:08.745Z,3.9
2018-07-26T09:06:09.617Z,5.3
2018-07-26T09:07:10.364Z,3.9
2018-07-26T09:08:11.101Z,2.2
2018-07-26T09:09:11.848Z,3.3
2018-07-26T09:10:12.587Z,4.6
2018-07-26T09:11:13.373Z,5.5
2018-07-26T09:12:14.109Z,3.8
2018-07-26T09:13:14.846Z,5.7
2018-07-26T09:14:15.585Z,7.3
2018-07-26T09:15:16.321Z,5.5
2018-07-26T09:16:17.107Z,4.4
2018-07-26T09:17:17.874Z,6.4
2018-07-26T09:18:18.625Z,5.3
2018-07-26T09:19:19.358Z,5.1
2018-07-26T09:20:20.091Z,2.4
2018-07-26T09:21:21.127Z,3.8
2018-07-26T09:22:21.871Z,6.6
2018-07-26T09:23:22.610Z,3.8
2018-07-26T09:24:23.405Z,2.2
2018-07-26T09:25:24.145Z,3.8
2018-07-26T09:26:24.880Z,2.2
2018-07-26T09:27:25.622Z,3.4
2018-07-26T09:28:26.363Z,4.6
2018-07-26T09:29:27.112Z,3.7
2018-07-26T09:30:27.852Z,5.4
2018-07-26T09:31:28.587Z,2.8
2018-07-26T09:32:29.321Z,3.8
2018-07-26T09:33:30.420Z,4.8
2018-07-26T09:34:31.154Z,4.2
2018-07-26T09:35:31.942Z,3.3
2018-07-26T09:36:32.628Z,2.5
2018-07-26T09:37:33.378Z,6.8
2018-07-26T09:38:34.176Z,4.1
2018-07-26T09:39:34.927Z,2.7
2018-07-26T09:40:35.672Z,5.5
2018-07-26T09:41:36.419Z,7.0
2018-07-26T09:42:37.156Z,2.2
2018-07-26T09:43:37.899Z,4.9
2018-07-26T09:44:38.649Z,4.4
2018-07-26T09:45:39.375Z,4.9
2018-07-26T09:46:40.116Z,1.6
2018-07-26T09:47:40.855Z,3.7
2018-07-26T09:48:42.200Z,3.0
2018-07-26T09:49:42.956Z,2.8
2018-07-26T09:50:43.683Z,3.1
2018-07-26T09:51:44.428Z,3.1
2018-07-26T09:52:45.178Z,4.1
2018-07-26T09:53:45.913Z,1.6
2018-07-26T09:54:46.662Z,2.4
2018-07-26T09:55:47.406Z,8.9
2018-07-26T09:56:48.427Z,3.7
2018-07-26T09:57:49.164Z,3.1
2018-07-26T09:58:49.905Z,3.8
2018-07-26T09:59:50.637Z,5.6
2018-07-26T10:00:51.369Z,7.0
2018-07-26T10:01:52.106Z,3.5
2018-07-26T10:02:52.853Z,10.8
2018-07-26T10:03:53.589Z,4.9
2018-07-26T10:04:54.390Z,1.5
2018-07-26T10:05:55.133Z,7.6
2018-07-26T10:06:55.893Z,2.2
2018-07-26T10:07:56.607Z,4.2
2018-07-26T10:08:57.619Z,2.0
2018-07-26T10:09:58.352Z,4.7
2018-07-26T10:10:59.087Z,3.1
2018-07-26T10:11:59.829Z,5.0
2018-07-26T10:13:00.581Z,5.0
2018-07-26T10:14:01.352Z,5.1
2018-07-26T10:15:02.092Z,2.3
2018-07-26T10:16:02.812Z,4.3
2018-07-26T10:17:03.830Z,1.9
2018-07-26T10:18:05.313Z,4.9
2018-07-26T10:20:07.580Z,1.4
2018-07-26T10:21:08.709Z,4.5
2018-07-26T10:22:09.580Z,2.5
2018-07-26T10:23:10.322Z,2.1
2018-07-26T10:24:11.075Z,1.7
2018-07-26T10:25:11.862Z,1.9
2018-07-26T10:26:12.605Z,1.5
2018-07-26T10:27:13.342Z,4.5
2018-07-26T10:28:14.098Z,1.9
2018-07-26T10:29:14.842Z,3.3
2018-07-26T10:30:15.596Z,1.2
2018-07-26T10:31:16.342Z,1.6
2018-07-26T10:32:17.134Z,1.8
2018-07-26T10:33:17.891Z,4.0
2018-07-26T10:34:18.628Z,5.3
2018-07-26T10:35:19.367Z,4.2
2018-07-26T10:36:20.132Z,5.4
2018-07-26T10:37:21.221Z,2.7
2018-07-26T10:38:22.225Z,1.5
2018-07-26T10:39:22.962Z,4.9
2018-07-26T10:40:23.711Z,2.2
2018-07-26T10:41:24.461Z,8.0
2018-07-26T10:42:25.204Z,4.3
2018-07-26T10:43:25.946Z,3.8
2018-07-26T10:44:26.723Z,5.2
2018-07-26T10:45:28.369Z,3.2
2018-07-26T10:46:29.467Z,4.9
2018-07-26T10:47:30.250Z,4.3
2018-07-26T10:48:31.323Z,2.3
2018-07-26T10:49:32.196Z,1.8
2018-07-26T10:50:32.938Z,2.8
2018-07-26T10:51:33.676Z,2.7
2018-07-26T10:52:34.425Z,2.2
2018-07-26T10:53:35.181Z,1.5
2018-07-26T10:54:36.290Z,2.5
2018-07-26T10:55:37.052Z,1.4
2018-07-26T10:56:37.790Z,2.3
2018-07-26T10:57:38.550Z,3.8
2018-07-26T10:58:39.324Z,6.0
2018-07-26T10:59:40.095Z,3.8
2018-07-26T11:00:40.837Z,1.2
2018-07-26T11:01:41.582Z,5.3
2018-07-26T11:02:42.334Z,6.4
2018-07-26T11:03:43.100Z,6.4
2018-07-26T11:04:43.875Z,4.8
2018-07-26T11:05:44.630Z,3.1
2018-07-26T11:06:45.362Z,1.7
2018-07-26T11:07:46.356Z,3.5
2018-07-26T11:08:47.103Z,1.9
2018-07-26T11:09:47.858Z,5.8
2018-07-26T11:10:48.592Z,2.1
2018-07-26T11:11:49.377Z,8.3
2018-07-26T11:12:50.117Z,2.0
2018-07-26T11:13:50.908Z,3.1
2018-07-26T11:14:52.045Z,4.5
2018-07-26T11:15:52.779Z,2.7
2018-07-26T11:16:53.544Z,4.2
2018-07-26T11:17:54.301Z,3.0
2018-07-26T11:18:55.076Z,4.7
2018-07-26T11:19:55.794Z,2.3
2018-07-26T11:20:56.554Z,4.8
2018-07-26T11:21:57.641Z,4.3
2018-07-26T11:22:58.388Z,1.9
2018-07-26T11:23:59.129Z,3.1
2018-07-26T11:24:59.882Z,2.4
2018-07-26T11:26:00.626Z,5.4
2018-07-26T11:27:01.430Z,1.7
2018-07-26T11:28:02.116Z,3.4
2018-07-26T11:29:02.876Z,3.6
2018-07-26T11:30:03.650Z,10.0
2018-07-26T11:31:04.383Z,1.7
2018-07-26T11:32:05.121Z,3.6
2018-07-26T11:33:05.873Z,5.6
2018-07-26T11:34:06.617Z,2.6
2018-07-26T11:35:07.364Z,1.5
2018-07-26T11:36:08.107Z,1.6
2018-07-26T11:37:08.857Z,4.1
2018-07-26T11:38:09.601Z,5.6
2018-07-26T11:39:10.394Z,6.0
2018-07-26T11:40:11.141Z,2.8
2018-07-26T11:41:11.881Z,1.9
2018-07-26T11:42:12.631Z,2.6
2018-07-26T11:43:13.378Z,1.8
2018-07-26T11:44:14.214Z,1.9
2018-07-26T11:45:14.969Z,2.0
2018-07-26T11:46:15.710Z,1.9
2018-07-26T11:47:16.465Z,3.7
2018-07-26T11:48:17.209Z,2.9
2018-07-26T11:49:17.955Z,6.8
2018-07-26T11:50:18.702Z,1.7
2018-07-26T11:51:19.443Z,3.3
2018-07-26T11:52:20.194Z,7.2
2018-07-26T11:53:20.963Z,2.5
2018-07-26T11:54:22.066Z,1.7
2018-07-26T11:55:22.813Z,4.1
2018-07-26T11:56:23.567Z,1.7
2018-07-26T11:57:24.312Z,1.9
2018-07-26T11:58:25.062Z,1.6
2018-07-26T11:59:25.862Z,1.9
2018-07-26T12:00:26.616Z,1.8
2018-07-26T12:01:27.358Z,3.5
2018-07-26T12:02:28.113Z,6.1
2018-07-26T12:03:28.862Z,3.3
2018-07-26T12:04:29.623Z,2.6
2018-07-26T12:05:30.361Z,2.0
2018-07-26T12:06:31.461Z,6.4
2018-07-26T12:07:32.206Z,1.8
2018-07-26T12:08:32.949Z,9.8
2018-07-26T12:09:33.704Z,2.7
2018-07-26T12:10:34.458Z,6.9
2018-07-26T12:11:35.242Z,1.9
2018-07-26T12:12:35.986Z,2.0
2018-07-26T12:13:36.735Z,4.1
2018-07-26T12:14:37.473Z,1.9
2018-07-26T12:15:38.216Z,1.9
2018-07-26T12:16:39.320Z,3.0
2018-07-26T12:17:40.095Z,1.9
2018-07-26T12:18:40.810Z,3.3
2018-07-26T12:19:41.629Z,5.6
2018-07-26T12:20:42.325Z,3.3
2018-07-26T12:21:43.131Z,3.0
2018-07-26T12:22:43.878Z,4.3
2018-07-26T12:23:44.628Z,3.0
2018-07-26T12:24:45.381Z,2.1
2018-07-26T12:25:46.121Z,8.2
2018-07-26T12:26:47.269Z,2.4
2018-07-26T12:27:47.965Z,4.2
2018-07-26T12:28:48.709Z,2.1
2018-07-26T12:29:49.460Z,2.0
2018-07-26T12:30:50.220Z,3.8
2018-07-26T12:31:50.966Z,2.2
2018-07-26T12:32:51.761Z,5.6
2018-07-26T12:33:52.507Z,4.1
2018-07-26T12:34:53.251Z,4.7
2018-07-26T12:35:54.007Z,2.2
2018-07-26T12:36:54.760Z,6.8
2018-07-26T12:37:55.504Z,4.5
2018-07-26T12:38:56.324Z,6.7
2018-07-26T12:39:57.082Z,5.6
2018-07-26T12:40:57.819Z,5.5
2018-07-26T12:41:58.564Z,7.9
2018-07-26T12:42:59.356Z,4.3
2018-07-26T12:44:00.112Z,5.5
2018-07-26T12:45:00.859Z,2.0
2018-07-26T12:46:01.604Z,2.1
2018-07-26T12:47:02.358Z,5.1
2018-07-26T12:48:03.371Z,2.1
2018-07-26T12:49:04.168Z,4.1
2018-07-26T12:50:04.911Z,3.3
2018-07-26T12:51:05.645Z,2.5
2018-07-26T12:52:06.389Z,1.9
2018-07-26T12:53:07.152Z,2.3
2018-07-26T12:54:07.878Z,3.0
2018-07-26T12:55:08.624Z,3.5
2018-07-26T12:56:09.403Z,2.0
2018-07-26T12:57:10.155Z,2.3
2018-07-26T12:58:10.899Z,4.6
2018-07-26T12:59:11.696Z,9.4
2018-07-26T13:00:12.467Z,1.9
2018-07-26T13:01:13.205Z,3.2
2018-07-26T13:02:13.960Z,1.7
2018-07-26T13:03:14.707Z,3.0
2018-07-26T13:04:15.564Z,3.0
2018-07-26T13:05:16.321Z,1.9
2018-07-26T13:06:17.058Z,5.1
2018-07-26T13:07:17.868Z,4.4
2018-07-26T13:08:18.543Z,5.3
2018-07-26T13:09:19.285Z,2.1
2018-07-26T13:10:20.032Z,1.9
2018-07-26T13:11:20.772Z,4.0
2018-07-26T13:12:21.525Z,1.6
2018-07-26T13:13:22.267Z,1.8
2018-07-26T13:14:23.057Z,1.9
2018-07-26T13:15:23.812Z,6.0
2018-07-26T13:16:24.826Z,5.7
2018-07-26T13:17:25.571Z,3.6
2018-07-26T13:18:26.310Z,2.6
2018-07-26T13:19:27.064Z,1.8
2018-07-26T13:20:27.819Z,3.3
2018-07-26T13:21:28.574Z,2.1
2018-07-26T13:22:29.330Z,3.3
2018-07-26T13:23:30.099Z,2.7
2018-07-26T13:24:30.854Z,2.4
2018-07-26T13:25:31.597Z,3.5
2018-07-26T13:26:32.406Z,5.1
2018-07-26T13:27:33.155Z,2.4
2018-07-26T13:28:33.907Z,5.9
2018-07-26T13:29:34.655Z,4.5
2018-07-26T13:30:35.421Z,6.3
2018-07-26T13:31:36.147Z,3.1
2018-07-26T13:32:36.890Z,2.7
2018-07-26T13:33:37.635Z,3.2
2018-07-26T13:34:38.373Z,2.7
2018-07-26T13:35:39.121Z,4.9
2018-07-26T13:36:39.894Z,2.4
2018-07-26T13:37:40.640Z,2.2
2018-07-26T13:38:41.387Z,6.3
2018-07-26T13:39:42.130Z,2.3
2018-07-26T13:40:42.900Z,2.1
2018-07-26T13:41:43.648Z,3.5
2018-07-26T13:42:44.393Z,4.8
2018-07-26T13:43:45.143Z,2.1
2018-07-26T13:44:45.890Z,3.4
2018-07-26T13:45:46.637Z,4.4
2018-07-26T13:46:47.384Z,3.5
2018-07-26T13:47:48.126Z,3.0
2018-07-26T13:48:48.871Z,3.0
2018-07-26T13:49:49.611Z,4.3
2018-07-26T13:50:50.356Z,2.1
2018-07-26T13:51:51.100Z,9.8
2018-07-26T13:52:51.841Z,4.0
2018-07-26T13:53:52.592Z,3.4
2018-07-26T13:54:53.334Z,3.7
2018-07-26T13:55:54.076Z,3.0